createdAt,value
2022-11-12T00:00:49.639Z,98130.69
2022-11-12T00:03:16.129Z,98123.00
2022-11-12T00:05:42.632Z,98136.59
2022-11-12T00:08:09.070Z,98130.56
2022-11-12T00:14:03.663Z,98130.34
2022-11-12T00:16:30.171Z,98135.31
2022-11-12T00:18:56.605Z,98128.38
2022-11-12T00:21:23.114Z,98117.28
2022-11-12T00:23:49.740Z,98126.69
2022-11-12T00:26:16.192Z,98133.66
2022-11-12T00:28:42.647Z,98134.50
2022-11-12T00:31:10.016Z,98124.09
2022-11-12T00:33:39.521Z,98118.78
2022-11-12T00:36:06.373Z,98115.16
2022-11-12T00:38:33.090Z,98125.28
2022-11-12T00:41:00.076Z,98117.44
2022-11-12T00:43:26.619Z,98121.50
2022-11-12T00:45:53.059Z,98115.47
2022-11-12T00:48:19.513Z,98111.97
2022-11-12T00:50:45.928Z,98114.47
2022-11-12T00:53:12.407Z,98115.31
2022-11-12T00:55:38.867Z,98114.41
2022-11-12T00:58:05.297Z,98115.25
2022-11-12T01:00:31.760Z,98109.28
2022-11-12T01:02:58.222Z,98110.94
2022-11-12T01:05:24.723Z,98118.69
2022-11-12T01:07:55.783Z,98118.16
2022-11-12T01:10:22.685Z,98112.69
2022-11-12T01:12:49.195Z,98108.72
2022-11-12T01:15:15.714Z,98111.38
2022-11-12T01:17:42.199Z,98109.63
2022-11-12T01:20:08.788Z,98103.53
2022-11-12T01:22:35.329Z,98107.03
2022-11-12T01:25:01.830Z,98101.13
2022-11-12T01:27:28.315Z,98099.44
2022-11-12T01:29:54.812Z,98101.19
2022-11-12T01:32:21.325Z,98100.44
2022-11-12T01:34:48.325Z,98097.06
2022-11-12T01:37:14.810Z,98093.72
2022-11-12T01:39:41.272Z,98099.75
2022-11-12T01:42:07.766Z,98093.88
2022-11-12T01:44:34.980Z,98092.19
2022-11-12T01:47:06.010Z,98100.97
2022-11-12T01:49:52.595Z,98097.63
2022-11-12T01:52:21.739Z,98092.50
2022-11-12T01:58:17.299Z,98093.50
2022-11-12T02:00:44.009Z,98096.13
2022-11-12T02:03:15.617Z,98086.84
2022-11-12T02:05:42.285Z,98084.56
2022-11-12T02:08:11.100Z,98077.94
2022-11-12T02:10:38.627Z,98079.66
2022-11-12T02:13:23.873Z,98080.56
2022-11-12T02:19:13.458Z,98075.50
2022-11-12T02:21:40.007Z,98080.81
2022-11-12T02:24:26.732Z,98077.47
2022-11-12T02:26:53.910Z,98069.84
2022-11-12T02:29:20.506Z,98072.53
2022-11-12T02:31:47.006Z,98084.53
2022-11-12T02:34:13.450Z,98078.75
2022-11-12T02:36:39.942Z,98080.53
2022-11-12T02:39:06.440Z,98079.03
2022-11-12T02:41:32.862Z,98082.56
2022-11-12T02:43:59.293Z,98084.28
2022-11-12T02:46:25.760Z,98078.50
2022-11-12T02:48:52.208Z,98072.75
2022-11-12T02:51:18.679Z,98071.50
2022-11-12T02:53:45.126Z,98078.66
2022-11-12T02:56:11.585Z,98076.09
2022-11-12T02:58:38.023Z,98079.41
2022-11-12T03:01:04.588Z,98081.75
2022-11-12T03:03:31.515Z,98076.56
2022-11-12T03:05:59.281Z,98084.13
2022-11-12T03:08:26.153Z,98088.34
2022-11-12T03:10:52.913Z,98081.31
2022-11-12T03:13:19.609Z,98093.25
2022-11-12T03:15:46.158Z,98080.44
2022-11-12T03:18:12.622Z,98086.41
2022-11-12T03:20:39.290Z,98084.75
2022-11-12T03:23:06.678Z,98077.88
2022-11-12T03:25:33.124Z,98092.19
2022-11-12T03:28:00.234Z,98087.06
2022-11-12T03:30:27.325Z,98086.25
2022-11-12T03:32:53.807Z,98087.03
2022-11-12T03:35:20.252Z,98087.03
2022-11-12T03:37:46.803Z,98087.91
2022-11-12T03:40:13.252Z,98081.94
2022-11-12T03:42:44.239Z,98085.34
2022-11-12T03:45:10.716Z,98093.94
2022-11-12T03:47:40.185Z,98089.72
2022-11-12T03:50:07.191Z,98089.59
2022-11-12T03:52:33.621Z,98084.47
2022-11-12T03:55:00.009Z,98092.06
2022-11-12T03:57:27.797Z,98080.91
2022-11-12T03:59:54.253Z,98072.38
2022-11-12T04:02:20.653Z,98073.13
2022-11-12T04:05:05.969Z,98073.94
2022-11-12T04:07:51.226Z,98066.97
2022-11-12T04:10:17.729Z,98063.56
2022-11-12T04:13:02.926Z,98059.25
2022-11-12T04:15:29.377Z,98058.50
2022-11-12T04:18:14.575Z,98063.69
2022-11-12T04:20:59.697Z,98062.13
2022-11-12T04:23:26.172Z,98067.38
2022-11-12T04:26:11.364Z,98064.06
2022-11-12T04:28:37.812Z,98054.78
2022-11-12T04:31:04.303Z,98051.53
2022-11-12T04:36:58.441Z,98054.09
2022-11-12T04:39:25.023Z,98047.31
2022-11-12T04:42:10.223Z,98050.72
2022-11-12T04:48:05.353Z,98051.69
2022-11-12T04:50:31.892Z,98044.00
2022-11-12T04:52:58.342Z,98049.88
2022-11-12T04:55:24.810Z,98046.41
2022-11-12T04:57:52.763Z,98044.75
2022-11-12T05:00:22.528Z,98043.84
2022-11-12T05:02:51.993Z,98048.22
2022-11-12T05:05:18.425Z,98046.56
2022-11-12T05:07:44.867Z,98046.63
2022-11-12T05:10:11.318Z,98045.94
2022-11-12T05:12:37.808Z,98043.38
2022-11-12T05:15:04.480Z,98046.91
2022-11-12T05:17:30.932Z,98044.53
2022-11-12T05:19:57.380Z,98046.53
2022-11-12T05:22:42.782Z,98039.94
2022-11-12T05:25:10.351Z,98052.81
2022-11-12T05:27:36.853Z,98043.47
2022-11-12T05:30:03.663Z,98054.81
2022-11-12T05:32:30.186Z,98054.19
2022-11-12T05:34:56.629Z,98061.25
2022-11-12T05:37:23.076Z,98051.25
2022-11-12T05:39:49.619Z,98053.09
2022-11-12T05:42:16.119Z,98059.22
2022-11-12T05:44:42.590Z,98056.69
2022-11-12T05:47:09.084Z,98060.09
2022-11-12T05:49:35.535Z,98063.56
2022-11-12T05:52:01.969Z,98065.22
2022-11-12T05:54:28.538Z,98065.22
2022-11-12T05:56:54.949Z,98069.47
2022-11-12T05:59:22.289Z,98070.28
2022-11-12T06:01:48.832Z,98065.22
2022-11-12T06:04:15.606Z,98064.47
2022-11-12T06:06:42.214Z,98083.41
2022-11-12T06:09:08.818Z,98079.97
2022-11-12T06:11:35.317Z,98079.91
2022-11-12T06:14:01.790Z,98084.13
2022-11-12T06:16:28.264Z,98078.94
2022-11-12T06:18:54.674Z,98079.81
2022-11-12T06:21:24.055Z,98080.81
2022-11-12T06:23:51.622Z,98086.75
2022-11-12T06:26:18.241Z,98093.53
2022-11-12T06:28:44.928Z,98098.66
2022-11-12T06:31:11.490Z,98096.84
2022-11-12T06:33:38.049Z,98095.19
2022-11-12T06:36:15.516Z,98096.94
2022-11-12T06:38:42.063Z,98099.69
2022-11-12T06:41:09.096Z,98106.81
2022-11-12T06:43:35.868Z,98114.75
2022-11-12T06:46:02.486Z,98125.84
2022-11-12T06:48:29.222Z,98126.75
2022-11-12T06:50:56.153Z,98108.81
2022-11-12T06:53:22.711Z,98102.88
2022-11-12T06:55:49.139Z,98110.47
2022-11-12T06:58:15.623Z,98107.72
2022-11-12T07:00:42.276Z,98110.91
2022-11-12T07:03:08.937Z,98098.66
2022-11-12T07:05:36.991Z,98095.91
2022-11-12T07:08:04.021Z,98107.38
2022-11-12T07:10:30.489Z,98115.50
2022-11-12T07:12:56.906Z,98116.00
2022-11-12T07:15:23.342Z,98119.06
2022-11-12T07:17:49.903Z,98115.38
2022-11-12T07:20:16.479Z,98120.06
2022-11-12T07:22:43.060Z,98114.53
2022-11-12T07:25:09.662Z,98112.44
2022-11-12T07:27:36.116Z,98113.00
2022-11-12T07:30:02.639Z,98107.56
2022-11-12T07:32:29.723Z,98115.03
2022-11-12T07:34:56.200Z,98108.78
2022-11-12T07:37:22.688Z,98106.53
2022-11-12T07:39:49.113Z,98109.34
2022-11-12T07:42:15.556Z,98112.16
2022-11-12T07:44:42.165Z,98101.94
2022-11-12T07:47:08.708Z,98113.34
2022-11-12T07:49:35.217Z,98111.13
2022-11-12T07:52:01.690Z,98117.41
2022-11-12T07:54:28.152Z,98117.78
2022-11-12T07:56:54.605Z,98116.31
2022-11-12T07:59:21.064Z,98110.97
2022-11-12T08:01:47.598Z,98122.78
2022-11-12T08:04:14.207Z,98114.38
2022-11-12T08:06:40.838Z,98114.72
2022-11-12T08:09:07.833Z,98101.47
2022-11-12T08:11:34.387Z,98105.59
2022-11-12T08:14:02.153Z,98103.78
2022-11-12T08:16:28.692Z,98106.22
2022-11-12T08:18:55.206Z,98114.63
2022-11-12T08:21:21.821Z,98121.72
2022-11-12T08:23:48.588Z,98127.31
2022-11-12T08:26:16.088Z,98135.72
2022-11-12T08:28:56.889Z,98128.56
2022-11-12T08:31:23.607Z,98131.94
2022-11-12T08:33:51.900Z,98135.81
2022-11-12T08:36:18.525Z,98133.78
2022-11-12T08:38:45.041Z,98131.72
2022-11-12T08:41:12.161Z,98126.06
2022-11-12T08:43:38.884Z,98127.38
2022-11-12T08:46:05.410Z,98127.81
2022-11-12T08:48:32.237Z,98132.69
2022-11-12T08:50:58.772Z,98139.03
2022-11-12T08:53:25.345Z,98137.78
2022-11-12T08:55:55.423Z,98139.63
2022-11-12T08:58:21.983Z,98130.69
2022-11-12T09:00:49.927Z,98135.72
2022-11-12T09:03:17.241Z,98130.28
2022-11-12T09:05:44.451Z,98128.56
2022-11-12T09:08:12.389Z,98131.47
2022-11-12T09:10:38.856Z,98130.75
2022-11-12T09:13:05.286Z,98130.19
2022-11-12T09:15:39.119Z,98136.69
2022-11-12T09:18:11.019Z,98133.06
2022-11-12T09:20:37.570Z,98133.50
2022-11-12T09:23:08.102Z,98127.50
2022-11-12T09:25:34.843Z,98132.41
2022-11-12T09:28:30.859Z,98133.50
2022-11-12T09:30:59.632Z,98136.34
2022-11-12T09:33:32.728Z,98131.44
2022-11-12T09:36:02.955Z,98133.47
2022-11-12T09:38:29.948Z,98125.84
2022-11-12T09:41:06.369Z,98122.44
2022-11-12T09:43:33.810Z,98133.56
2022-11-12T09:48:51.545Z,98130.97
2022-11-12T09:51:33.999Z,98132.06
2022-11-12T09:54:20.788Z,98129.00
2022-11-12T09:56:48.400Z,98133.72
2022-11-12T09:59:14.871Z,98137.16
2022-11-12T10:02:01.636Z,98141.66
2022-11-12T10:04:34.283Z,98139.88
2022-11-12T10:07:00.759Z,98138.31
2022-11-12T10:09:29.129Z,98142.81
2022-11-12T10:12:34.242Z,98143.91
2022-11-12T10:15:31.623Z,98158.88
2022-11-12T10:18:01.269Z,98147.31
2022-11-12T10:20:38.480Z,98146.72
2022-11-12T10:23:16.266Z,98149.19
2022-11-12T10:26:05.779Z,98149.19
2022-11-12T10:28:39.229Z,98149.31
2022-11-12T10:31:15.843Z,98147.53
2022-11-12T10:33:42.355Z,98134.41
2022-11-12T10:36:12.024Z,98141.00
2022-11-12T10:42:33.843Z,98135.00
2022-11-12T10:45:14.970Z,98140.41
2022-11-12T10:47:44.575Z,98136.81
2022-11-12T10:50:30.212Z,98135.53
2022-11-12T10:52:57.955Z,98132.22
2022-11-12T10:55:31.797Z,98126.31
2022-11-12T10:58:16.595Z,98124.69
2022-11-12T11:01:05.151Z,98123.78
2022-11-12T11:03:36.665Z,98122.16
2022-11-12T11:06:15.423Z,98124.13
2022-11-12T11:08:46.187Z,98120.03
2022-11-12T11:11:26.879Z,98123.22
2022-11-12T11:13:57.124Z,98116.50
2022-11-12T11:16:24.503Z,98116.00
2022-11-12T11:19:00.866Z,98116.56
2022-11-12T11:21:46.210Z,98116.88
2022-11-12T11:24:16.251Z,98115.91
2022-11-12T11:26:49.908Z,98116.06
2022-11-12T11:29:35.122Z,98114.31
2022-11-12T11:32:20.240Z,98113.19
2022-11-12T11:34:52.886Z,98111.41
2022-11-12T11:37:28.567Z,98115.25
2022-11-12T11:40:13.764Z,98117.59
2022-11-12T11:42:40.255Z,98112.66
2022-11-12T11:45:12.481Z,98112.91
2022-11-12T11:48:00.426Z,98109.09
2022-11-12T11:50:28.347Z,98116.09
2022-11-12T11:53:04.049Z,98120.34
2022-11-12T11:55:50.827Z,98115.53
2022-11-12T11:58:36.139Z,98113.75
2022-11-12T12:01:02.556Z,98109.47
2022-11-12T12:03:37.574Z,98110.84
2022-11-12T12:06:07.575Z,98107.00
2022-11-12T12:08:40.207Z,98103.56
2022-11-12T12:11:10.355Z,98108.50
2022-11-12T12:13:36.809Z,98105.63
2022-11-12T12:16:41.901Z,98099.97
2022-11-12T12:19:31.668Z,98105.44
2022-11-12T12:21:58.375Z,98105.59
2022-11-12T12:24:48.160Z,98095.28
2022-11-12T12:27:14.629Z,98095.28
2022-11-12T12:29:43.335Z,98096.81
2022-11-12T12:32:12.848Z,98093.09
2022-11-12T12:34:46.499Z,98090.38
2022-11-12T12:37:12.934Z,98087.88
2022-11-12T12:39:47.970Z,98096.28
2022-11-12T12:42:29.374Z,98087.09
2022-11-12T12:45:00.222Z,98096.84
2022-11-12T12:47:28.643Z,98097.09
2022-11-12T12:49:55.100Z,98091.44
2022-11-12T12:52:21.549Z,98073.34
2022-11-12T12:54:48.045Z,98083.78
2022-11-12T12:57:31.323Z,98074.75
2022-11-12T13:00:16.527Z,98075.81
2022-11-12T13:02:43.121Z,98084.97
2022-11-12T13:05:29.997Z,98077.13
2022-11-12T13:07:57.712Z,98079.38
2022-11-12T13:10:39.360Z,98079.22
2022-11-12T13:13:06.656Z,98074.09
2022-11-12T13:15:53.915Z,98074.97
2022-11-12T13:18:38.764Z,98073.72
2022-11-12T13:21:11.997Z,98076.31
2022-11-12T13:24:06.864Z,98068.66
2022-11-12T13:26:39.472Z,98065.22
2022-11-12T13:29:24.557Z,98074.25
2022-11-12T13:32:10.915Z,98082.34
2022-11-12T13:34:37.420Z,98068.78
2022-11-12T13:37:04.507Z,98070.56
2022-11-12T13:39:32.497Z,98078.63
2022-11-12T13:42:17.531Z,98066.81
2022-11-12T13:44:43.948Z,98062.44
2022-11-12T13:47:12.283Z,98065.44
2022-11-12T13:49:38.875Z,98069.81
2022-11-12T13:55:28.073Z,98070.22
2022-11-12T13:57:54.965Z,98074.06
2022-11-12T14:00:21.542Z,98072.38
2022-11-12T14:02:58.280Z,98068.97
2022-11-12T14:05:31.900Z,98066.75
2022-11-12T14:08:16.987Z,98064.13
2022-11-12T14:11:02.279Z,98073.72
2022-11-12T14:13:47.561Z,98061.81
2022-11-12T14:16:26.207Z,98066.44
2022-11-12T14:18:55.818Z,98065.19
2022-11-12T14:21:22.401Z,98073.41
2022-11-12T14:23:49.266Z,98069.56
2022-11-12T14:26:33.351Z,98061.31
2022-11-12T14:28:59.821Z,98069.63
2022-11-12T14:31:26.357Z,98070.00
2022-11-12T14:33:52.825Z,98064.66
2022-11-12T14:36:19.275Z,98058.91
2022-11-12T14:38:55.564Z,98064.75
2022-11-12T14:41:22.856Z,98053.59
2022-11-12T14:44:07.495Z,98053.41
2022-11-12T14:46:39.991Z,98053.09
2022-11-12T14:49:07.029Z,98054.81
2022-11-12T14:51:36.893Z,98054.03
2022-11-12T14:54:05.039Z,98040.63
2022-11-12T14:56:35.812Z,98043.09
2022-11-12T14:59:02.476Z,98037.28
2022-11-12T15:02:14.553Z,98033.63
2022-11-12T15:04:18.866Z,98046.53
2022-11-12T15:06:51.607Z,98049.13
2022-11-12T15:09:43.304Z,98042.38
2022-11-12T15:12:11.406Z,98047.38
2022-11-12T15:14:37.919Z,98049.31
2022-11-12T15:17:06.097Z,98046.94
2022-11-12T15:19:32.559Z,98043.34
2022-11-12T15:22:01.240Z,98055.09
2022-11-12T15:24:31.686Z,98054.53
2022-11-12T15:26:58.968Z,98049.28
2022-11-12T15:29:32.470Z,98053.31
2022-11-12T15:32:00.052Z,98052.19
2022-11-12T15:34:32.660Z,98046.00
2022-11-12T15:37:00.415Z,98050.31
2022-11-12T15:39:27.101Z,98046.47
2022-11-12T15:42:03.708Z,98048.66
2022-11-12T15:44:31.427Z,98046.78
2022-11-12T15:46:58.944Z,98048.34
2022-11-12T15:49:25.480Z,98048.53
2022-11-12T15:51:51.935Z,98051.91
2022-11-12T15:54:18.423Z,98048.38
2022-11-12T15:56:44.978Z,98045.88
2022-11-12T15:59:14.889Z,98049.31
2022-11-12T16:01:41.372Z,98051.94
2022-11-12T16:04:08.192Z,98051.91
2022-11-12T16:06:34.707Z,98054.00
2022-11-12T16:09:01.297Z,98062.88
2022-11-12T16:11:36.986Z,98056.97
2022-11-12T16:14:07.879Z,98053.94
2022-11-12T16:16:34.406Z,98055.06
2022-11-12T16:19:00.877Z,98045.41
2022-11-12T16:21:27.387Z,98043.22
2022-11-12T16:23:53.904Z,98039.88
2022-11-12T16:26:23.318Z,98045.03
2022-11-12T16:28:49.898Z,98047.72
2022-11-12T16:31:16.401Z,98050.41
2022-11-12T16:33:42.859Z,98043.75
2022-11-12T16:36:15.849Z,98046.81
2022-11-12T16:38:42.529Z,98040.06
2022-11-12T16:41:12.319Z,98041.47
2022-11-12T16:43:39.019Z,98048.44
2022-11-12T16:46:28.750Z,98048.44
2022-11-12T16:48:55.225Z,98054.28
2022-11-12T16:51:21.947Z,98049.75
2022-11-12T16:53:48.553Z,98048.44
2022-11-12T16:56:19.036Z,98044.28
2022-11-12T16:58:45.592Z,98045.31
2022-11-12T17:01:28.076Z,98045.31
2022-11-12T17:03:55.744Z,98044.25
2022-11-12T17:06:22.588Z,98053.22
2022-11-12T17:08:49.591Z,98060.94
2022-11-12T17:11:16.222Z,98051.50
2022-11-12T17:13:42.949Z,98062.63
2022-11-12T17:16:09.534Z,98051.66
2022-11-12T17:18:36.104Z,98054.47
2022-11-12T17:21:12.988Z,98057.31
2022-11-12T17:23:39.607Z,98051.53
2022-11-12T17:26:06.848Z,98054.44
2022-11-12T17:28:33.404Z,98053.38
2022-11-12T17:31:07.360Z,98050.66
2022-11-12T17:33:37.632Z,98043.28
2022-11-12T17:36:04.628Z,98046.72
2022-11-12T17:38:31.167Z,98048.66
2022-11-12T17:40:57.909Z,98044.66
2022-11-12T17:43:24.707Z,98041.41
2022-11-12T17:45:51.824Z,98029.56
2022-11-12T17:48:18.374Z,98035.63
2022-11-12T17:50:45.082Z,98033.97
2022-11-12T17:53:29.579Z,98029.00
2022-11-12T17:55:56.726Z,98027.91
2022-11-12T17:58:23.332Z,98032.25
2022-11-12T18:00:51.857Z,98035.63
2022-11-12T18:03:18.744Z,98037.72
2022-11-12T18:05:45.193Z,98036.28
2022-11-12T18:08:11.708Z,98036.44
2022-11-12T18:10:38.154Z,98041.75
2022-11-12T18:13:04.652Z,98042.91
2022-11-12T18:15:31.156Z,98041.31
2022-11-12T18:21:19.189Z,98036.75
2022-11-12T18:23:45.681Z,98037.75
2022-11-12T18:26:15.123Z,98034.44
2022-11-12T18:28:42.475Z,98040.63
2022-11-12T18:31:08.987Z,98039.94
2022-11-12T18:33:37.639Z,98035.13
2022-11-12T18:36:08.206Z,98040.91
2022-11-12T18:38:35.036Z,98046.66
2022-11-12T18:41:02.319Z,98048.03
2022-11-12T18:43:29.171Z,98047.50
2022-11-12T18:45:59.336Z,98050.06
2022-11-12T18:48:29.377Z,98047.50
2022-11-12T18:50:59.444Z,98047.28
2022-11-12T18:53:26.689Z,98050.16
2022-11-12T18:55:53.885Z,98052.94
2022-11-12T18:58:20.364Z,98055.16
2022-11-12T19:00:46.962Z,98060.69
2022-11-12T19:03:13.519Z,98052.47
2022-11-12T19:05:40.167Z,98068.81
2022-11-12T19:08:06.696Z,98069.91
2022-11-12T19:10:33.245Z,98069.81
2022-11-12T19:13:03.897Z,98070.63
2022-11-12T19:15:34.307Z,98078.94
2022-11-12T19:18:01.334Z,98075.41
2022-11-12T19:20:28.215Z,98071.88
2022-11-12T19:22:54.767Z,98074.44
2022-11-12T19:25:22.048Z,98092.53
2022-11-12T19:27:48.691Z,98080.59
2022-11-12T19:30:15.396Z,98082.56
2022-11-12T19:32:42.018Z,98087.44
2022-11-12T19:35:08.762Z,98097.16
2022-11-12T19:37:35.221Z,98079.56
2022-11-12T19:40:01.701Z,98089.88
2022-11-12T19:42:28.232Z,98083.44
2022-11-12T19:44:54.716Z,98084.34
2022-11-12T19:47:21.159Z,98086.97
2022-11-12T19:49:47.587Z,98083.44
2022-11-12T19:52:14.035Z,98084.34
2022-11-12T19:54:40.505Z,98092.88
2022-11-12T19:57:07.000Z,98094.59
2022-11-12T19:59:34.901Z,98095.34
2022-11-12T20:02:01.326Z,98089.41
2022-11-12T20:04:27.785Z,98093.78
2022-11-12T20:06:54.409Z,98092.94
2022-11-12T20:09:20.938Z,98097.28
2022-11-12T20:11:47.427Z,98101.75
2022-11-12T20:14:13.911Z,98099.19
2022-11-12T20:16:40.358Z,98097.66
2022-11-12T20:19:06.795Z,98094.53
2022-11-12T20:21:33.663Z,98090.34
2022-11-12T20:24:00.617Z,98093.06
2022-11-12T20:26:27.320Z,98090.63
2022-11-12T20:28:54.027Z,98092.28
2022-11-12T20:31:20.917Z,98088.25
2022-11-12T20:33:48.876Z,98089.41
2022-11-12T20:36:16.331Z,98086.25
2022-11-12T20:38:43.157Z,98083.59
2022-11-12T20:41:13.617Z,98089.13
2022-11-12T20:43:40.101Z,98079.91
2022-11-12T20:46:06.543Z,98079.91
2022-11-12T20:48:35.230Z,98072.22
2022-11-12T20:51:28.662Z,98082.38
2022-11-12T20:53:59.332Z,98077.06
2022-11-12T20:56:27.353Z,98076.88
2022-11-12T20:58:53.856Z,98076.13
2022-11-12T21:01:20.927Z,98082.00
2022-11-12T21:03:47.511Z,98079.31
2022-11-12T21:06:15.187Z,98082.75
2022-11-12T21:08:41.819Z,98068.38
2022-11-12T21:11:09.065Z,98076.06
2022-11-12T21:13:35.759Z,98075.22
2022-11-12T21:16:02.306Z,98078.69
2022-11-12T21:18:29.156Z,98075.22
2022-11-12T21:21:14.910Z,98070.19
2022-11-12T21:23:41.966Z,98071.94
2022-11-12T21:26:18.480Z,98077.97
2022-11-12T21:28:45.728Z,98073.84
2022-11-12T21:31:15.928Z,98077.41
2022-11-12T21:33:42.501Z,98081.91
2022-11-12T21:36:14.837Z,98076.03
2022-11-12T21:38:42.843Z,98079.41
2022-11-12T21:41:10.405Z,98081.06
2022-11-12T21:43:37.470Z,98075.88
2022-11-12T21:46:06.935Z,98080.09
2022-11-12T21:48:33.384Z,98070.00
2022-11-12T21:51:03.876Z,98078.00
2022-11-12T21:53:30.344Z,98071.53
2022-11-12T21:56:04.215Z,98068.25
2022-11-12T21:58:31.031Z,98078.50
2022-11-12T22:01:06.056Z,98075.44
2022-11-12T22:03:32.599Z,98078.25
2022-11-12T22:05:59.601Z,98072.31
2022-11-12T22:08:26.354Z,98079.00
2022-11-12T22:10:53.089Z,98084.91
2022-11-12T22:13:26.845Z,98084.19
2022-11-12T22:15:54.093Z,98084.28
2022-11-12T22:21:42.851Z,98080.09
2022-11-12T22:24:09.394Z,98079.91
2022-11-12T22:26:35.947Z,98076.59
2022-11-12T22:29:02.439Z,98070.81
2022-11-12T22:31:29.540Z,98077.59
2022-11-12T22:33:57.135Z,98079.50
2022-11-12T22:36:24.155Z,98071.97
2022-11-12T22:38:51.194Z,98070.25
2022-11-12T22:41:18.476Z,98072.81
2022-11-12T22:43:48.280Z,98072.88
2022-11-12T22:46:24.612Z,98080.59
2022-11-12T22:48:51.192Z,98089.88
2022-11-12T22:51:21.663Z,98088.16
2022-11-12T22:53:48.205Z,98082.97
2022-11-12T22:56:15.274Z,98089.75
2022-11-12T22:58:42.314Z,98094.75
2022-11-12T23:01:11.091Z,98088.84
2022-11-12T23:03:37.691Z,98084.69
2022-11-12T23:06:04.863Z,98087.56
2022-11-12T23:08:31.553Z,98080.44
2022-11-12T23:11:01.579Z,98077.19
2022-11-12T23:13:28.125Z,98070.41
2022-11-12T23:15:54.719Z,98068.78
2022-11-12T23:18:21.253Z,98074.63
2022-11-12T23:20:47.691Z,98066.06
2022-11-12T23:23:14.187Z,98074.38
2022-11-12T23:25:40.666Z,98071.69
2022-11-12T23:28:07.803Z,98057.91
2022-11-12T23:30:35.109Z,98055.22
2022-11-12T23:33:01.777Z,98060.13
2022-11-12T23:35:28.819Z,98052.59
2022-11-12T23:37:55.415Z,98055.97
2022-11-12T23:40:21.970Z,98046.66
2022-11-12T23:42:48.401Z,98044.13
2022-11-12T23:45:14.904Z,98050.13
2022-11-12T23:47:41.365Z,98041.56
2022-11-12T23:50:08.168Z,98038.91
2022-11-12T23:52:35.392Z,98041.34
2022-11-12T23:58:30.430Z,98037.44
